sensor_id;sensor_type;location;lat;lon;timestamp;pressure;altitude;pressure_sealevel;temperature;humidity
26719;BME280;14326;50.794;6.060;2023-01-19T00:01:25;102058.59;;;1.51;100.00
26719;BME280;14326;50.794;6.060;2023-01-19T00:03:51;102066.00;;;1.48;100.00
26719;BME280;14326;50.794;6.060;2023-01-19T00:06:18;102051.63;;;1.56;100.00
26719;BME280;14326;50.794;6.060;2023-01-19T00:08:44;102054.59;;;1.57;100.00
26719;BME280;14326;50.794;6.060;2023-01-19T00:11:13;102031.69;;;1.64;100.00
26719;BME280;14326;50.794;6.060;2023-01-19T00:13:43;102047.28;;;1.61;100.00
26719;BME280;14326;50.794;6.060;2023-01-19T00:16:14;102034.53;;;1.64;100.00
26719;BME280;14326;50.794;6.060;2023-01-19T00:18:41;102019.16;;;1.69;100.00
26719;BME280;14326;50.794;6.060;2023-01-19T00:21:08;102021.88;;;1.69;100.00
26719;BME280;14326;50.794;6.060;2023-01-19T00:23:34;102019.28;;;1.69;100.00
26719;BME280;14326;50.794;6.060;2023-01-19T00:26:01;102014.81;;;1.73;100.00
26719;BME280;14326;50.794;6.060;2023-01-19T00:28:28;102012.59;;;1.75;100.00
26719;BME280;14326;50.794;6.060;2023-01-19T00:30:56;102006.09;;;1.82;100.00
26719;BME280;14326;50.794;6.060;2023-01-19T00:33:22;102003.28;;;1.82;100.00
26719;BME280;14326;50.794;6.060;2023-01-19T00:35:50;102005.75;;;1.81;100.00
26719;BME280;14326;50.794;6.060;2023-01-19T00:38:17;102007.75;;;1.78;100.00
26719;BME280;14326;50.794;6.060;2023-01-19T00:40:43;102022.13;;;1.70;100.00
26719;BME280;14326;50.794;6.060;2023-01-19T00:43:10;102014.34;;;1.71;100.00
26719;BME280;14326;50.794;6.060;2023-01-19T00:45:36;102041.97;;;1.61;100.00
26719;BME280;14326;50.794;6.060;2023-01-19T00:48:05;102035.19;;;1.56;100.00
26719;BME280;14326;50.794;6.060;2023-01-19T00:50:32;102048.66;;;1.55;100.00
26719;BME280;14326;50.794;6.060;2023-01-19T00:52:59;102054.47;;;1.57;100.00
26719;BME280;14326;50.794;6.060;2023-01-19T00:55:26;102042.56;;;1.64;100.00
26719;BME280;14326;50.794;6.060;2023-01-19T00:57:53;102039.84;;;1.64;100.00
26719;BME280;14326;50.794;6.060;2023-01-19T01:00:21;102043.47;;;1.56;100.00
26719;BME280;14326;50.794;6.060;2023-01-19T01:02:49;102058.59;;;1.51;100.00
26719;BME280;14326;50.794;6.060;2023-01-19T01:05:18;102069.47;;;1.51;100.00
26719;BME280;14326;50.794;6.060;2023-01-19T01:07:45;102064.38;;;1.53;100.00
26719;BME280;14326;50.794;6.060;2023-01-19T01:10:15;102082.69;;;1.50;100.00
26719;BME280;14326;50.794;6.060;2023-01-19T01:12:42;102081.84;;;1.46;100.00
26719;BME280;14326;50.794;6.060;2023-01-19T01:15:11;102094.59;;;1.43;100.00
26719;BME280;14326;50.794;6.060;2023-01-19T01:17:38;102084.56;;;1.46;100.00
26719;BME280;14326;50.794;6.060;2023-01-19T01:20:15;102085.31;;;1.49;100.00
26719;BME280;14326;50.794;6.060;2023-01-19T01:22:49;102075.50;;;1.54;100.00
26719;BME280;14326;50.794;6.060;2023-01-19T01:25:17;102077.63;;;1.51;100.00
26719;BME280;14326;50.794;6.060;2023-01-19T01:27:44;102086.28;;;1.53;100.00
26719;BME280;14326;50.794;6.060;2023-01-19T01:30:12;102095.69;;;1.47;100.00
26719;BME280;14326;50.794;6.060;2023-01-19T01:32:39;102095.47;;;1.46;100.00
26719;BME280;14326;50.794;6.060;2023-01-19T01:35:07;102110.81;;;1.42;100.00
26719;BME280;14326;50.794;6.060;2023-01-19T01:37:34;102105.38;;;1.42;100.00
26719;BME280;14326;50.794;6.060;2023-01-19T01:40:03;102120.34;;;1.37;100.00
26719;BME280;14326;50.794;6.060;2023-01-19T01:42:32;102120.22;;;1.36;100.00
26719;BME280;14326;50.794;6.060;2023-01-19T01:45:00;102122.59;;;1.35;100.00
26719;BME280;14326;50.794;6.060;2023-01-19T01:47:33;102130.50;;;1.34;100.00
26719;BME280;14326;50.794;6.060;2023-01-19T01:50:06;102140.19;;;1.29;100.00
26719;BME280;14326;50.794;6.060;2023-01-19T01:52:36;102150.69;;;1.27;100.00
26719;BME280;14326;50.794;6.060;2023-01-19T01:55:07;102154.78;;;1.21;100.00
26719;BME280;14326;50.794;6.060;2023-01-19T01:57:35;102139.31;;;1.25;100.00
26719;BME280;14326;50.794;6.060;2023-01-19T02:00:04;102139.81;;;1.27;100.00
26719;BME280;14326;50.794;6.060;2023-01-19T02:02:32;102142.03;;;1.25;100.00
26719;BME280;14326;50.794;6.060;2023-01-19T02:05:18;102124.56;;;1.32;100.00
26719;BME280;14326;50.794;6.060;2023-01-19T02:07:51;102131.03;;;1.24;100.00
26719;BME280;14326;50.794;6.060;2023-01-19T02:10:40;102141.78;;;1.24;100.00
26719;BME280;14326;50.794;6.060;2023-01-19T02:13:25;102138.72;;;1.22;100.00
26719;BME280;14326;50.794;6.060;2023-01-19T02:15:53;102139.31;;;1.25;100.00
26719;BME280;14326;50.794;6.060;2023-01-19T02:18:22;102132.25;;;1.30;100.00
26719;BME280;14326;50.794;6.060;2023-01-19T02:20:54;102144.03;;;1.22;100.00
26719;BME280;14326;50.794;6.060;2023-01-19T02:23:37;102148.75;;;1.19;100.00
26719;BME280;14326;50.794;6.060;2023-01-19T02:26:06;102152.97;;;1.14;100.00
26719;BME280;14326;50.794;6.060;2023-01-19T02:28:35;102148.25;;;1.17;100.00
26719;BME280;14326;50.794;6.060;2023-01-19T02:31:04;102152.97;;;1.14;100.00
26719;BME280;14326;50.794;6.060;2023-01-19T02:33:31;102134.13;;;1.26;100.00
26719;BME280;14326;50.794;6.060;2023-01-19T02:35:58;102140.81;;;1.20;100.00
26719;BME280;14326;50.794;6.060;2023-01-19T02:38:26;102147.63;;;1.14;100.00
26719;BME280;14326;50.794;6.060;2023-01-19T02:40:57;102150.47;;;1.15;100.00
26719;BME280;14326;50.794;6.060;2023-01-19T02:43:26;102137.84;;;1.19;100.00
26719;BME280;14326;50.794;6.060;2023-01-19T02:45:54;102133.28;;;1.22;100.00
26719;BME280;14326;50.794;6.060;2023-01-19T02:48:21;102119.78;;;1.23;100.00
26719;BME280;14326;50.794;6.060;2023-01-19T02:50:49;102128.44;;;1.25;100.00
26719;BME280;14326;50.794;6.060;2023-01-19T02:53:32;102126.44;;;1.28;100.00
26719;BME280;14326;50.794;6.060;2023-01-19T02:56:11;102141.78;;;1.24;100.00
26719;BME280;14326;50.794;6.060;2023-01-19T02:58:53;102143.53;;;1.20;100.00
26719;BME280;14326;50.794;6.060;2023-01-19T03:01:26;102154.31;;;1.19;100.00
26719;BME280;14326;50.794;6.060;2023-01-19T03:03:59;102154.31;;;1.19;100.00
26719;BME280;14326;50.794;6.060;2023-01-19T03:06:38;102144.41;;;1.23;100.00
26719;BME280;14326;50.794;6.060;2023-01-19T03:09:11;102147.59;;;1.26;100.00
26719;BME280;14326;50.794;6.060;2023-01-19T03:11:47;102132.38;;;1.30;100.00
26719;BME280;14326;50.794;6.060;2023-01-19T03:14:18;102137.56;;;1.29;100.00
26719;BME280;14326;50.794;6.060;2023-01-19T03:16:50;102132.63;;;1.31;100.00
26719;BME280;14326;50.794;6.060;2023-01-19T03:19:22;102121.97;;;1.32;100.00
26719;BME280;14326;50.794;6.060;2023-01-19T03:21:53;102130.50;;;1.34;100.00
26719;BME280;14326;50.794;6.060;2023-01-19T03:24:21;102113.28;;;1.41;100.00
26719;BME280;14326;50.794;6.060;2023-01-19T03:26:57;102108.44;;;1.44;100.00
26719;BME280;14326;50.794;6.060;2023-01-19T03:29:38;102115.88;;;1.41;100.00
26719;BME280;14326;50.794;6.060;2023-01-19T03:32:16;102118.38;;;1.40;100.00
26719;BME280;14326;50.794;6.060;2023-01-19T03:34:55;102111.91;;;1.47;100.00
26719;BME280;14326;50.794;6.060;2023-01-19T03:37:32;102106.81;;;1.48;100.00
26719;BME280;14326;50.794;6.060;2023-01-19T03:40:12;102112.03;;;1.47;100.00
26719;BME280;14326;50.794;6.060;2023-01-19T03:42:54;102109.31;;;1.47;100.00
26719;BME280;14326;50.794;6.060;2023-01-19T03:45:23;102095.94;;;1.48;100.00
26719;BME280;14326;50.794;6.060;2023-01-19T03:47:58;102102.47;;;1.53;100.00
26719;BME280;14326;50.794;6.060;2023-01-19T03:50:29;102102.84;;;1.54;100.00
26719;BME280;14326;50.794;6.060;2023-01-19T03:53:03;102097.53;;;1.55;100.00
26719;BME280;14326;50.794;6.060;2023-01-19T03:55:41;102091.72;;;1.53;100.00
26719;BME280;14326;50.794;6.060;2023-01-19T03:58:19;102105.81;;;1.55;100.00
26719;BME280;14326;50.794;6.060;2023-01-19T04:00:46;102110.53;;;1.52;100.00
26719;BME280;14326;50.794;6.060;2023-01-19T04:03:19;102093.16;;;1.59;100.00
26719;BME280;14326;50.794;6.060;2023-01-19T04:05:55;102093.28;;;1.60;100.00
26719;BME280;14326;50.794;6.060;2023-01-19T04:08:24;102096.13;;;1.60;100.00
26719;BME280;14326;50.794;6.060;2023-01-19T04:10:55;102098.50;;;1.59;100.00
26719;BME280;14326;50.794;6.060;2023-01-19T04:13:28;102085.75;;;1.62;100.00
26719;BME280;14326;50.794;6.060;2023-01-19T04:16:03;102103.94;;;1.59;100.00
26719;BME280;14326;50.794;6.060;2023-01-19T04:18:42;102085.84;;;1.63;100.00
26719;BME280;14326;50.794;6.060;2023-01-19T04:21:24;102094.63;;;1.65;100.00
26719;BME280;14326;50.794;6.060;2023-01-19T04:24:02;102088.94;;;1.64;100.00
26719;BME280;14326;50.794;6.060;2023-01-19T04:26:29;102077.94;;;1.64;100.00
26719;BME280;14326;50.794;6.060;2023-01-19T04:29:30;102075.94;;;1.67;100.00
26719;BME280;14326;50.794;6.060;2023-01-19T04:31:59;102078.31;;;1.65;100.00
26719;BME280;14326;50.794;6.060;2023-01-19T04:34:30;102078.78;;;1.68;100.00
26719;BME280;14326;50.794;6.060;2023-01-19T04:37:07;102073.47;;;1.68;100.00
26719;BME280;14326;50.794;6.060;2023-01-19T04:39:39;102088.69;;;1.63;100.00
26719;BME280;14326;50.794;6.060;2023-01-19T04:42:19;102089.31;;;1.66;100.00
26719;BME280;14326;50.794;6.060;2023-01-19T04:44:58;102076.78;;;1.71;100.00
26719;BME280;14326;50.794;6.060;2023-01-19T04:47:28;102074.06;;;1.71;100.00
26719;BME280;14326;50.794;6.060;2023-01-19T04:50:09;102074.78;;;1.74;100.00
26719;BME280;14326;50.794;6.060;2023-01-19T04:52:44;102077.75;;;1.75;100.00
26719;BME280;14326;50.794;6.060;2023-01-19T04:55:22;102071.03;;;1.81;100.00
26719;BME280;14326;50.794;6.060;2023-01-19T04:57:54;102078.59;;;1.78;100.00
26719;BME280;14326;50.794;6.060;2023-01-19T05:00:38;102082.19;;;1.82;100.00
26719;BME280;14326;50.794;6.060;2023-01-19T05:03:10;102077.22;;;1.84;100.00
26719;BME280;14326;50.794;6.060;2023-01-19T05:05:44;102079.09;;;1.80;100.00
26719;BME280;14326;50.794;6.060;2023-01-19T05:08:20;102082.19;;;1.82;100.00
26719;BME280;14326;50.794;6.060;2023-01-19T05:10:49;102092.22;;;1.78;100.00
26719;BME280;14326;50.794;6.060;2023-01-19T05:13:31;102091.84;;;1.77;100.00
26719;BME280;14326;50.794;6.060;2023-01-19T05:16:08;102087.84;;;1.83;100.00
26719;BME280;14326;50.794;6.060;2023-01-19T05:18:35;102102.97;;;1.78;100.00
26719;BME280;14326;50.794;6.060;2023-01-19T05:21:02;102105.34;;;1.76;100.00
26719;BME280;14326;50.794;6.060;2023-01-19T05:23:29;102109.13;;;1.81;100.00
26719;BME280;14326;50.794;6.060;2023-01-19T05:25:56;102099.09;;;1.84;100.00
26719;BME280;14326;50.794;6.060;2023-01-19T05:28:25;102114.34;;;1.80;100.00
26719;BME280;14326;50.794;6.060;2023-01-19T05:30:51;102116.81;;;1.79;100.00
26719;BME280;14326;50.794;6.060;2023-01-19T05:33:20;102114.22;;;1.79;100.00
26719;BME280;14326;50.794;6.060;2023-01-19T05:35:48;102129.81;;;1.76;100.00
26719;BME280;14326;50.794;6.060;2023-01-19T05:38:15;102139.25;;;1.70;100.00
26719;BME280;14326;50.794;6.060;2023-01-19T05:40:41;102129.22;;;1.74;100.00
26719;BME280;14326;50.794;6.060;2023-01-19T05:43:08;102129.47;;;1.75;100.00
26719;BME280;14326;50.794;6.060;2023-01-19T05:45:34;102125.22;;;1.80;100.00
26719;BME280;14326;50.794;6.060;2023-01-19T05:48:03;102132.53;;;1.76;100.00
26719;BME280;14326;50.794;6.060;2023-01-19T05:50:31;102145.06;;;1.72;100.00
26719;BME280;14326;50.794;6.060;2023-01-19T05:52:58;102130.41;;;1.79;100.00
26719;BME280;14326;50.794;6.060;2023-01-19T05:55:27;102135.88;;;1.79;100.00
26719;BME280;14326;50.794;6.060;2023-01-19T05:57:53;102139.13;;;1.70;100.00
26719;BME280;14326;50.794;6.060;2023-01-19T06:00:20;102145.41;;;1.73;100.00
26719;BME280;14326;50.794;6.060;2023-01-19T06:02:47;102141.97;;;1.70;100.00
26719;BME280;14326;50.794;6.060;2023-01-19T06:05:14;102139.50;;;1.71;100.00
26719;BME280;14326;50.794;6.060;2023-01-19T06:07:42;102144.56;;;1.70;100.00
26719;BME280;14326;50.794;6.060;2023-01-19T06:10:10;102151.03;;;1.62;100.00
26719;BME280;14326;50.794;6.060;2023-01-19T06:12:38;102152.00;;;1.67;100.00
26719;BME280;14326;50.794;6.060;2023-01-19T06:15:06;102145.19;;;1.72;100.00
26719;BME280;14326;50.794;6.060;2023-01-19T06:17:33;102150.75;;;1.73;100.00
26719;BME280;14326;50.794;6.060;2023-01-19T06:19:59;102157.94;;;1.69;100.00
26719;BME280;14326;50.794;6.060;2023-01-19T06:22:27;102155.09;;;1.68;100.00
26719;BME280;14326;50.794;6.060;2023-01-19T06:24:55;102157.44;;;1.67;100.00
26719;BME280;14326;50.794;6.060;2023-01-19T06:27:21;102147.53;;;1.71;100.00
26719;BME280;14326;50.794;6.060;2023-01-19T06:29:48;102151.34;;;1.75;100.00
26719;BME280;14326;50.794;6.060;2023-01-19T06:32:14;102148.50;;;1.75;100.00
26719;BME280;14326;50.794;6.060;2023-01-19T06:34:41;102158.91;;;1.73;100.00
26719;BME280;14326;50.794;6.060;2023-01-19T06:37:08;102169.06;;;1.70;100.00
26719;BME280;14326;50.794;6.060;2023-01-19T06:39:36;102178.97;;;1.65;100.00
26719;BME280;14326;50.794;6.060;2023-01-19T06:42:06;102184.19;;;1.64;100.00
26719;BME280;14326;50.794;6.060;2023-01-19T06:44:33;102182.53;;;1.69;100.00
26719;BME280;14326;50.794;6.060;2023-01-19T06:47:00;102187.88;;;1.69;100.00
26719;BME280;14326;50.794;6.060;2023-01-19T06:49:26;102188.09;;;1.70;100.00
26719;BME280;14326;50.794;6.060;2023-01-19T06:51:53;102193.06;;;1.68;100.00
26719;BME280;14326;50.794;6.060;2023-01-19T06:54:20;102193.69;;;1.70;100.00
26719;BME280;14326;50.794;6.060;2023-01-19T06:56:46;102209.16;;;1.67;100.00
26719;BME280;14326;50.794;6.060;2023-01-19T06:59:14;102229.22;;;1.59;100.00
26719;BME280;14326;50.794;6.060;2023-01-19T07:01:41;102224.03;;;1.60;100.00
26719;BME280;14326;50.794;6.060;2023-01-19T07:04:07;102235.03;;;1.61;100.00
26719;BME280;14326;50.794;6.060;2023-01-19T07:06:38;102258.19;;;1.55;100.00
26719;BME280;14326;50.794;6.060;2023-01-19T07:09:04;102275.78;;;1.49;100.00
26719;BME280;14326;50.794;6.060;2023-01-19T07:11:34;102281.22;;;1.49;100.00
26719;BME280;14326;50.794;6.060;2023-01-19T07:14:06;102282.44;;;1.54;100.00
26719;BME280;14326;50.794;6.060;2023-01-19T07:16:38;102285.03;;;1.54;100.00
26719;BME280;14326;50.794;6.060;2023-01-19T07:19:21;102284.78;;;1.53;100.00
26719;BME280;14326;50.794;6.060;2023-01-19T07:21:52;102289.38;;;1.49;100.00
26719;BME280;14326;50.794;6.060;2023-01-19T07:24:26;102283.69;;;1.48;100.00
26719;BME280;14326;50.794;6.060;2023-01-19T07:26:59;102286.28;;;1.48;100.00
26719;BME280;14326;50.794;6.060;2023-01-19T07:29:29;102280.72;;;1.47;100.00
26719;BME280;14326;50.794;6.060;2023-01-19T07:32:09;102276.13;;;1.51;100.00
26719;BME280;14326;50.794;6.060;2023-01-19T07:34:36;102283.69;;;1.48;100.00
26719;BME280;14326;50.794;6.060;2023-01-19T07:37:03;102293.34;;;1.43;100.00
26719;BME280;14326;50.794;6.060;2023-01-19T07:39:29;102285.81;;;1.46;100.00
26719;BME280;14326;50.794;6.060;2023-01-19T07:41:56;102293.72;;;1.45;100.00
26719;BME280;14326;50.794;6.060;2023-01-19T07:44:23;102291.59;;;1.47;100.00
26719;BME280;14326;50.794;6.060;2023-01-19T07:46:50;102289.38;;;1.49;100.00
26719;BME280;14326;50.794;6.060;2023-01-19T07:49:18;102291.84;;;1.48;100.00
26719;BME280;14326;50.794;6.060;2023-01-19T07:51:44;102287.63;;;1.53;100.00
26719;BME280;14326;50.794;6.060;2023-01-19T07:54:11;102297.91;;;1.51;100.00
26719;BME280;14326;50.794;6.060;2023-01-19T07:56:38;102290.47;;;1.54;100.00
26719;BME280;14326;50.794;6.060;2023-01-19T07:59:05;102290.94;;;1.56;100.00
26719;BME280;14326;50.794;6.060;2023-01-19T08:01:33;102289.09;;;1.59;100.00
26719;BME280;14326;50.794;6.060;2023-01-19T08:04:00;102294.16;;;1.58;100.00
26719;BME280;14326;50.794;6.060;2023-01-19T08:06:31;102294.03;;;1.57;100.00
26719;BME280;14326;50.794;6.060;2023-01-19T08:08:58;102294.16;;;1.58;100.00
26719;BME280;14326;50.794;6.060;2023-01-19T08:11:25;102289.56;;;1.61;100.00
26719;BME280;14326;50.794;6.060;2023-01-19T08:13:52;102295.25;;;1.62;100.00
26719;BME280;14326;50.794;6.060;2023-01-19T08:16:18;102295.97;;;1.65;100.00
26719;BME280;14326;50.794;6.060;2023-01-19T08:18:45;102285.34;;;1.67;100.00
26719;BME280;14326;50.794;6.060;2023-01-19T08:21:12;102291.50;;;1.70;100.00
26719;BME280;14326;50.794;6.060;2023-01-19T08:23:40;102290.78;;;1.67;100.00
26719;BME280;14326;50.794;6.060;2023-01-19T08:26:17;102291.50;;;1.70;100.00
26719;BME280;14326;50.794;6.060;2023-01-19T08:28:43;102286.44;;;1.71;100.00
26719;BME280;14326;50.794;6.060;2023-01-19T08:31:10;102276.63;;;1.76;100.00
26719;BME280;14326;50.794;6.060;2023-01-19T08:33:36;102277.84;;;1.81;100.00
26719;BME280;14326;50.794;6.060;2023-01-19T08:36:03;102272.41;;;1.81;100.00
26719;BME280;14326;50.794;6.060;2023-01-19T08:38:30;102273.38;;;1.85;100.00
26719;BME280;14326;50.794;6.060;2023-01-19T08:40:58;102278.44;;;1.83;100.00
26719;BME280;14326;50.794;6.060;2023-01-19T08:43:25;102275.59;;;1.83;100.00
26719;BME280;14326;50.794;6.060;2023-01-19T08:45:52;102288.84;;;1.81;100.00
26719;BME280;14326;50.794;6.060;2023-01-19T08:48:21;102289.44;;;1.84;100.00
26719;BME280;14326;50.794;6.060;2023-01-19T08:50:49;102295.00;;;1.84;100.00
26719;BME280;14326;50.794;6.060;2023-01-19T08:53:16;102297.38;;;1.83;100.00
26719;BME280;14326;50.794;6.060;2023-01-19T08:55:45;102282.97;;;1.91;100.00
26719;BME280;14326;50.794;6.060;2023-01-19T08:58:13;102278.03;;;1.93;100.00
26719;BME280;14326;50.794;6.060;2023-01-19T09:00:40;102284.66;;;1.98;100.00
26719;BME280;14326;50.794;6.060;2023-01-19T09:03:08;102279.59;;;1.99;100.00
26719;BME280;14326;50.794;6.060;2023-01-19T09:05:37;102276.88;;;1.99;100.00
26719;BME280;14326;50.794;6.060;2023-01-19T09:08:06;102292.72;;;1.97;100.00
26719;BME280;14326;50.794;6.060;2023-01-19T09:10:33;102297.19;;;1.93;100.00
26719;BME280;14326;50.794;6.060;2023-01-19T09:13:02;102292.34;;;1.96;100.00
26719;BME280;14326;50.794;6.060;2023-01-19T09:15:31;102293.06;;;1.99;100.00
26719;BME280;14326;50.794;6.060;2023-01-19T09:18:00;102293.06;;;1.99;100.00
26719;BME280;14326;50.794;6.060;2023-01-19T09:20:30;102303.00;;;1.95;100.00
26719;BME280;14326;50.794;6.060;2023-01-19T09:22:59;102305.84;;;1.95;100.00
26719;BME280;14326;50.794;6.060;2023-01-19T09:25:26;102303.22;;;1.96;100.00
26719;BME280;14326;50.794;6.060;2023-01-19T09:27:52;102311.63;;;1.97;100.00
26719;BME280;14326;50.794;6.060;2023-01-19T09:30:20;102304.44;;;2.01;100.00
26719;BME280;14326;50.794;6.060;2023-01-19T09:32:48;102299.97;;;2.05;100.00
26719;BME280;14326;50.794;6.060;2023-01-19T09:35:15;102311.19;;;2.06;100.00
26719;BME280;14326;50.794;6.060;2023-01-19T09:37:45;102311.19;;;2.06;100.00
26719;BME280;14326;50.794;6.060;2023-01-19T09:40:12;102300.81;;;2.09;100.00
26719;BME280;14326;50.794;6.060;2023-01-19T09:42:41;102304.00;;;2.11;100.00
26719;BME280;14326;50.794;6.060;2023-01-19T09:45:14;102296.56;;;2.14;100.00
26719;BME280;14326;50.794;6.060;2023-01-19T09:47:44;102301.75;;;2.13;100.00
26719;BME280;14326;50.794;6.060;2023-01-19T09:50:17;102300.13;;;2.17;100.00
26719;BME280;14326;50.794;6.060;2023-01-19T09:52:51;102294.81;;;2.18;100.00
26719;BME280;14326;50.794;6.060;2023-01-19T09:55:24;102295.88;;;2.22;100.00
26719;BME280;14326;50.794;6.060;2023-01-19T09:57:51;102294.59;;;2.28;100.00
26719;BME280;14326;50.794;6.060;2023-01-19T10:00:18;102292.34;;;2.30;100.00
26719;BME280;14326;50.794;6.060;2023-01-19T10:02:47;102292.72;;;2.32;100.00
26719;BME280;14326;50.794;6.060;2023-01-19T10:05:25;102282.31;;;2.34;100.00
26719;BME280;14326;50.794;6.060;2023-01-19T10:08:03;102292.59;;;2.31;100.00
26719;BME280;14326;50.794;6.060;2023-01-19T10:10:34;102295.44;;;2.32;100.00
26719;BME280;14326;50.794;6.060;2023-01-19T10:13:24;102282.31;;;2.34;100.00
26719;BME280;14326;50.794;6.060;2023-01-19T10:16:01;102290.84;;;2.35;100.00
26719;BME280;14326;50.794;6.060;2023-01-19T10:18:39;102288.34;;;2.36;100.00
26719;BME280;14326;50.794;6.060;2023-01-19T10:21:15;102293.06;;;2.33;100.00
26719;BME280;14326;50.794;6.060;2023-01-19T10:23:46;102290.72;;;2.35;100.00
26719;BME280;14326;50.794;6.060;2023-01-19T10:26:17;102285.75;;;2.37;100.00
26719;BME280;14326;50.794;6.060;2023-01-19T10:28:46;102289.19;;;2.40;100.00
26719;BME280;14326;50.794;6.060;2023-01-19T10:31:17;102294.53;;;2.39;100.00
26719;BME280;14326;50.794;6.060;2023-01-19T10:33:44;102297.47;;;2.40;100.00
26719;BME280;14326;50.794;6.060;2023-01-19T10:36:18;102282.09;;;2.44;100.00
26719;BME280;14326;50.794;6.060;2023-01-19T10:38:45;102285.31;;;2.46;100.00
26719;BME280;14326;50.794;6.060;2023-01-19T10:41:17;102285.31;;;2.46;100.00
26719;BME280;14326;50.794;6.060;2023-01-19T10:43:45;102285.78;;;2.48;100.00
26719;BME280;14326;50.794;6.060;2023-01-19T10:46:21;102273.13;;;2.53;100.00
26719;BME280;14326;50.794;6.060;2023-01-19T10:48:50;102280.56;;;2.50;100.00
26719;BME280;14326;50.794;6.060;2023-01-19T10:51:19;102283.41;;;2.50;100.00
26719;BME280;14326;50.794;6.060;2023-01-19T10:53:57;102288.25;;;2.47;100.00
26719;BME280;14326;50.794;6.060;2023-01-19T10:56:29;102278.56;;;2.53;100.00
26719;BME280;14326;50.794;6.060;2023-01-19T10:58:58;102276.31;;;2.55;100.00
26719;BME280;14326;50.794;6.060;2023-01-19T11:01:26;102278.09;;;2.51;100.00
26719;BME280;14326;50.794;6.060;2023-01-19T11:03:54;102277.50;;;2.48;100.00
26719;BME280;14326;50.794;6.060;2023-01-19T11:06:32;102282.34;;;2.45;100.00
26719;BME280;14326;50.794;6.060;2023-01-19T11:09:11;102291.09;;;2.48;100.00
26719;BME280;14326;50.794;6.060;2023-01-19T11:11:42;102292.63;;;2.43;100.00
26719;BME280;14326;50.794;6.060;2023-01-19T11:14:11;102292.88;;;2.44;100.00
26719;BME280;14326;50.794;6.060;2023-01-19T11:16:38;102295.47;;;2.43;100.00
26719;BME280;14326;50.794;6.060;2023-01-19T11:19:16;102307.88;;;2.38;100.00
26719;BME280;14326;50.794;6.060;2023-01-19T11:21:45;102310.25;;;2.37;100.00
26719;BME280;14326;50.794;6.060;2023-01-19T11:24:12;102302.69;;;2.39;100.00
26719;BME280;14326;50.794;6.060;2023-01-19T11:26:42;102302.56;;;2.39;100.00
26719;BME280;14326;50.794;6.060;2023-01-19T11:29:18;102298.06;;;2.43;100.00
26719;BME280;14326;50.794;6.060;2023-01-19T11:31:46;102287.78;;;2.45;100.00
26719;BME280;14326;50.794;6.060;2023-01-19T11:34:25;102285.78;;;2.48;100.00
26719;BME280;14326;50.794;6.060;2023-01-19T11:36:58;102286.13;;;2.50;100.00
26719;BME280;14326;50.794;6.060;2023-01-19T11:39:26;102280.94;;;2.51;100.00
26719;BME280;14326;50.794;6.060;2023-01-19T11:41:55;102265.81;;;2.56;100.00
26719;BME280;14326;50.794;6.060;2023-01-19T11:44:24;102263.31;;;2.57;100.00
26719;BME280;14326;50.794;6.060;2023-01-19T11:46:54;102269.00;;;2.58;100.00
26719;BME280;14326;50.794;6.060;2023-01-19T11:49:28;102279.53;;;2.57;100.00
26719;BME280;14326;50.794;6.060;2023-01-19T11:52:03;102273.59;;;2.55;100.00
26719;BME280;14326;50.794;6.060;2023-01-19T11:54:34;102273.59;;;2.55;100.00
26719;BME280;14326;50.794;6.060;2023-01-19T11:57:05;102258.00;;;2.58;100.00
26719;BME280;14326;50.794;6.060;2023-01-19T11:59:35;102273.38;;;2.54;100.00
26719;BME280;14326;50.794;6.060;2023-01-19T12:02:14;102286.38;;;2.51;100.00
26719;BME280;14326;50.794;6.060;2023-01-19T12:04:44;102273.00;;;2.52;100.00
26719;BME280;14326;50.794;6.060;2023-01-19T12:07:17;102283.31;;;2.50;100.00
26719;BME280;14326;50.794;6.060;2023-01-19T12:09:51;102275.50;;;2.51;100.00
26719;BME280;14326;50.794;6.060;2023-01-19T12:12:25;102277.63;;;2.48;100.00
26719;BME280;14326;50.794;6.060;2023-01-19T12:14:57;102277.50;;;2.48;100.00
26719;BME280;14326;50.794;6.060;2023-01-19T12:17:28;102277.38;;;2.47;100.00
26719;BME280;14326;50.794;6.060;2023-01-19T12:20:02;102269.47;;;2.48;100.00
26719;BME280;14326;50.794;6.060;2023-01-19T12:22:39;102264.38;;;2.50;100.00
26719;BME280;14326;50.794;6.060;2023-01-19T12:25:16;102259.16;;;2.51;100.00
26719;BME280;14326;50.794;6.060;2023-01-19T12:27:46;102247.34;;;2.59;100.00
26719;BME280;14326;50.794;6.060;2023-01-19T12:30:19;102247.22;;;2.58;100.00
26719;BME280;14326;50.794;6.060;2023-01-19T12:32:47;102227.13;;;2.65;100.00
26719;BME280;14326;50.794;6.060;2023-01-19T12:35:53;102229.97;;;2.66;100.00
26719;BME280;14326;50.794;6.060;2023-01-19T12:38:46;102228.19;;;2.70;100.00
26719;BME280;14326;50.794;6.060;2023-01-19T12:41:25;102213.41;;;2.76;100.00
26719;BME280;14326;50.794;6.060;2023-01-19T12:46:58;102205.28;;;2.88;100.00
26719;BME280;14326;50.794;6.060;2023-01-19T12:49:29;102197.34;;;2.89;100.00
26719;BME280;14326;50.794;6.060;2023-01-19T12:52:15;102205.03;;;2.87;100.00
26719;BME280;14326;50.794;6.060;2023-01-19T12:54:53;102210.34;;;2.86;100.00
26719;BME280;14326;50.794;6.060;2023-01-19T12:57:24;102207.50;;;2.86;100.00
26719;BME280;14326;50.794;6.060;2023-01-19T12:59:56;102215.19;;;2.84;100.00
26719;BME280;14326;50.794;6.060;2023-01-19T13:02:39;102215.31;;;2.84;100.00
26719;BME280;14326;50.794;6.060;2023-01-19T13:05:13;102217.56;;;2.82;100.00
26719;BME280;14326;50.794;6.060;2023-01-19T13:11:19;102207.50;;;2.86;100.00
26719;BME280;14326;50.794;6.060;2023-01-19T13:19:49;102198.28;;;2.93;100.00
26719;BME280;14326;50.794;6.060;2023-01-19T13:22:48;102210.94;;;2.89;100.00